createdAt,value
2019-03-28T00:00:43.120Z,0.00
2019-03-28T00:01:43.115Z,0.00
2019-03-28T00:02:43.111Z,0.00
2019-03-28T00:03:43.131Z,0.00
2019-03-28T00:04:43.102Z,0.00
2019-03-28T00:05:43.095Z,0.00
2019-03-28T00:06:43.096Z,0.00
2019-03-28T00:07:43.061Z,0.00
2019-03-28T00:08:43.058Z,0.00
2019-03-28T00:09:43.031Z,0.00
2019-03-28T00:10:43.018Z,0.00
2019-03-28T00:11:43.027Z,0.00
2019-03-28T00:12:43.031Z,0.00
2019-03-28T00:13:42.993Z,0.00
2019-03-28T00:14:43.214Z,0.00
2019-03-28T00:15:42.965Z,0.00
2019-03-28T00:16:42.969Z,0.00
2019-03-28T00:17:42.944Z,0.00
2019-03-28T00:18:42.968Z,0.00
2019-03-28T00:19:42.920Z,0.00
2019-03-28T00:20:42.913Z,0.00
2019-03-28T00:21:42.902Z,0.00
2019-03-28T00:22:42.907Z,0.00
2019-03-28T00:23:42.879Z,0.00
2019-03-28T00:24:42.905Z,0.00
2019-03-28T00:25:42.859Z,0.00
2019-03-28T00:26:42.850Z,0.00
2019-03-28T00:27:42.834Z,0.00
2019-03-28T00:28:42.848Z,0.00
2019-03-28T00:29:42.814Z,0.00
2019-03-28T00:30:42.839Z,0.00
2019-03-28T00:31:42.832Z,0.00
2019-03-28T00:32:42.806Z,0.00
2019-03-28T00:33:42.773Z,0.00
2019-03-28T00:34:42.776Z,0.00
2019-03-28T00:35:42.755Z,0.00
2019-03-28T00:36:42.742Z,0.00
2019-03-28T00:37:42.764Z,0.00
2019-03-28T00:38:42.755Z,0.00
2019-03-28T00:39:42.713Z,0.00
2019-03-28T00:40:42.716Z,0.00
2019-03-28T00:41:42.722Z,0.00
2019-03-28T00:42:42.679Z,0.00
2019-03-28T00:43:42.673Z,0.00
2019-03-28T00:44:42.657Z,0.00
2019-03-28T00:45:44.553Z,0.00
2019-03-28T00:46:42.654Z,0.00
2019-03-28T00:47:42.661Z,0.00
2019-03-28T00:48:42.616Z,0.00
2019-03-28T00:49:43.201Z,0.00
2019-03-28T00:50:42.600Z,0.00
2019-03-28T00:51:43.325Z,0.00
2019-03-28T00:52:42.631Z,0.00
2019-03-28T00:53:42.559Z,0.00
2019-03-28T00:54:42.556Z,0.00
2019-03-28T00:55:42.546Z,0.00
2019-03-28T00:56:46.814Z,0.00
2019-03-28T00:57:42.558Z,0.00
2019-03-28T00:58:42.533Z,0.00
2019-03-28T00:59:42.503Z,0.00
2019-03-28T01:00:42.491Z,0.00
2019-03-28T01:01:42.482Z,0.00
2019-03-28T01:02:42.469Z,0.00
2019-03-28T01:03:42.495Z,0.00
2019-03-28T01:04:42.472Z,0.00
2019-03-28T01:05:42.447Z,0.00
2019-03-28T01:06:42.423Z,0.00
2019-03-28T01:07:42.418Z,0.00
2019-03-28T01:08:42.408Z,0.00
2019-03-28T01:09:42.431Z,0.00
2019-03-28T01:10:42.382Z,0.00
2019-03-28T01:11:42.392Z,0.00
2019-03-28T01:12:42.364Z,0.00
2019-03-28T01:13:43.184Z,0.00
2019-03-28T01:14:42.339Z,0.00
2019-03-28T01:15:42.373Z,0.00
2019-03-28T01:16:42.320Z,0.00
2019-03-28T01:17:42.325Z,0.00
2019-03-28T01:18:42.305Z,0.00
2019-03-28T01:19:42.296Z,0.00
2019-03-28T01:20:42.276Z,0.00
2019-03-28T01:21:42.308Z,0.00
2019-03-28T01:22:42.255Z,0.00
2019-03-28T01:23:42.258Z,0.00
2019-03-28T01:24:42.235Z,0.00
2019-03-28T01:25:42.222Z,0.00
2019-03-28T01:26:42.215Z,0.00
2019-03-28T01:27:42.245Z,0.00
2019-03-28T01:28:42.198Z,0.00
2019-03-28T01:29:42.187Z,0.00
2019-03-28T01:30:42.183Z,0.00
2019-03-28T01:31:42.166Z,0.00
2019-03-28T01:32:42.150Z,0.00
2019-03-28T01:33:42.182Z,0.00
2019-03-28T01:34:42.130Z,0.00
2019-03-28T01:35:42.117Z,0.00
2019-03-28T01:36:42.127Z,0.00
2019-03-28T01:37:42.099Z,0.00
2019-03-28T01:38:42.093Z,0.00
2019-03-28T01:39:42.115Z,0.00
2019-03-28T01:40:42.066Z,0.00
2019-03-28T01:41:42.056Z,0.00
2019-03-28T01:42:42.063Z,0.00
2019-03-28T01:43:42.033Z,0.00
2019-03-28T01:44:42.049Z,0.00
2019-03-28T01:45:42.052Z,0.00
2019-03-28T01:46:42.003Z,0.00
2019-03-28T01:47:41.991Z,0.00
2019-03-28T01:48:41.993Z,0.00
2019-03-28T01:49:41.975Z,0.00
2019-03-28T01:50:41.964Z,0.00
2019-03-28T01:51:41.990Z,0.00
2019-03-28T01:52:41.941Z,0.00
2019-03-28T01:53:41.930Z,0.00
2019-03-28T01:54:41.929Z,0.00
2019-03-28T01:55:41.909Z,0.00
2019-03-28T01:56:41.897Z,0.00
2019-03-28T01:57:41.927Z,0.00
2019-03-28T01:58:41.873Z,0.00
2019-03-28T01:59:41.865Z,0.00
2019-03-28T02:00:41.868Z,0.00
2019-03-28T02:01:41.844Z,0.00
2019-03-28T02:02:41.844Z,0.00
2019-03-28T02:03:41.859Z,0.00
2019-03-28T02:04:41.814Z,0.00
2019-03-28T02:05:41.844Z,0.00
2019-03-28T02:06:41.791Z,0.00
2019-03-28T02:07:41.804Z,0.00
2019-03-28T02:08:41.773Z,0.00
2019-03-28T02:09:41.759Z,0.00
2019-03-28T02:10:41.748Z,0.00
2019-03-28T02:11:41.770Z,0.00
2019-03-28T02:12:41.732Z,0.00
2019-03-28T02:13:41.781Z,0.00
2019-03-28T02:14:41.713Z,0.00
2019-03-28T02:15:41.695Z,0.00
2019-03-28T02:16:41.684Z,0.00
2019-03-28T02:17:41.676Z,0.00
2019-03-28T02:18:41.671Z,0.00
2019-03-28T02:19:41.711Z,0.00
2019-03-28T02:20:41.648Z,0.00
2019-03-28T02:21:41.631Z,0.00
2019-03-28T02:22:41.621Z,0.00
2019-03-28T02:23:41.618Z,0.00
2019-03-28T02:24:41.599Z,0.00
2019-03-28T02:25:41.638Z,0.00
2019-03-28T02:26:41.581Z,0.00
2019-03-28T02:27:41.569Z,0.00
2019-03-28T02:28:41.560Z,0.00
2019-03-28T02:29:41.552Z,0.00
2019-03-28T02:30:41.541Z,0.00
2019-03-28T02:31:42.891Z,0.00
2019-03-28T02:32:41.515Z,0.00
2019-03-28T02:33:41.516Z,0.00
2019-03-28T02:34:41.493Z,0.00
2019-03-28T02:35:41.489Z,0.00
2019-03-28T02:36:41.473Z,0.00
2019-03-28T02:37:41.511Z,0.00
2019-03-28T02:38:41.455Z,0.00
2019-03-28T02:39:41.444Z,0.00
2019-03-28T02:40:42.573Z,0.00
2019-03-28T02:41:41.423Z,0.00
2019-03-28T02:42:41.455Z,0.00
2019-03-28T02:43:41.432Z,0.00
2019-03-28T02:44:41.388Z,0.00
2019-03-28T02:45:41.383Z,0.00
2019-03-28T02:46:41.370Z,0.00
2019-03-28T02:47:41.361Z,0.00
2019-03-28T02:48:41.383Z,0.00
2019-03-28T02:49:41.363Z,0.00
2019-03-28T02:50:41.369Z,0.00
2019-03-28T02:51:41.316Z,0.00
2019-03-28T02:52:41.310Z,0.00
2019-03-28T02:53:41.300Z,0.00
2019-03-28T02:54:41.286Z,0.00
2019-03-28T02:55:41.279Z,0.00
2019-03-28T02:56:41.869Z,0.00
2019-03-28T02:57:43.597Z,0.00
2019-03-28T02:58:41.286Z,0.00
2019-03-28T02:59:41.236Z,0.00
2019-03-28T03:00:41.229Z,0.00
2019-03-28T03:01:41.226Z,0.00
2019-03-28T03:02:41.239Z,0.00
2019-03-28T03:03:41.236Z,0.00
2019-03-28T03:04:41.192Z,0.00
2019-03-28T03:05:41.171Z,0.00
2019-03-28T03:06:41.158Z,0.00
2019-03-28T03:07:41.876Z,0.00
2019-03-28T03:08:41.137Z,0.00
2019-03-28T03:09:41.161Z,0.00
2019-03-28T03:10:41.127Z,0.00
2019-03-28T03:11:42.907Z,0.00
2019-03-28T03:12:41.103Z,0.00
2019-03-28T03:13:41.084Z,0.00
2019-03-28T03:14:41.080Z,0.00
2019-03-28T03:15:41.099Z,0.00
2019-03-28T03:16:41.058Z,0.00
2019-03-28T03:17:41.645Z,0.00
2019-03-28T03:18:41.042Z,0.00
2019-03-28T03:19:41.024Z,0.00
2019-03-28T03:20:41.051Z,0.00
2019-03-28T03:21:41.007Z,0.00
2019-03-28T03:22:40.991Z,0.00
2019-03-28T03:23:40.990Z,0.00
2019-03-28T03:24:40.978Z,0.00
2019-03-28T03:25:40.979Z,0.00
2019-03-28T03:26:40.989Z,0.00
2019-03-28T03:27:56.270Z,0.00
2019-03-28T03:28:41.930Z,0.00
2019-03-28T03:29:40.929Z,0.00
2019-03-28T03:30:40.912Z,0.00
2019-03-28T03:31:40.899Z,0.00
2019-03-28T03:32:40.927Z,0.00
2019-03-28T03:33:40.873Z,0.00
2019-03-28T03:34:40.866Z,0.00
2019-03-28T03:35:40.880Z,0.00
2019-03-28T03:36:40.852Z,0.00
2019-03-28T03:37:40.829Z,0.00
2019-03-28T03:38:40.862Z,0.00
2019-03-28T03:39:40.810Z,0.00
2019-03-28T03:40:40.799Z,0.00
2019-03-28T03:41:40.801Z,0.00
2019-03-28T03:42:40.790Z,0.00
2019-03-28T03:43:40.766Z,0.00
2019-03-28T03:44:42.025Z,0.00
2019-03-28T03:45:40.749Z,0.00
2019-03-28T03:46:40.737Z,0.00
2019-03-28T03:47:40.730Z,0.00
2019-03-28T03:48:40.731Z,0.00
2019-03-28T03:49:40.702Z,0.00
2019-03-28T03:50:40.732Z,0.00
2019-03-28T03:51:40.959Z,0.00
2019-03-28T03:52:41.603Z,0.00
2019-03-28T03:53:40.662Z,0.00
2019-03-28T03:54:40.654Z,0.00
2019-03-28T03:55:40.655Z,0.00
2019-03-28T03:56:40.629Z,0.00
2019-03-28T03:57:40.625Z,0.00
2019-03-28T03:58:40.652Z,0.00
2019-03-28T03:59:40.598Z,0.00
2019-03-28T04:00:40.591Z,0.00
2019-03-28T04:01:40.595Z,0.00
2019-03-28T04:02:40.569Z,0.00
2019-03-28T04:03:40.554Z,0.00
2019-03-28T04:04:40.579Z,0.00
2019-03-28T04:05:40.532Z,0.00
2019-03-28T04:06:40.529Z,0.00
2019-03-28T04:07:40.535Z,0.00
2019-03-28T04:08:40.500Z,0.00
2019-03-28T04:09:40.497Z,0.00
2019-03-28T04:10:40.516Z,0.00
2019-03-28T04:11:40.469Z,0.00
2019-03-28T04:12:40.461Z,0.00
2019-03-28T04:13:40.460Z,0.00
2019-03-28T04:14:40.435Z,0.00
2019-03-28T04:15:40.426Z,0.00
2019-03-28T04:16:40.455Z,0.00
2019-03-28T04:17:40.414Z,0.00
2019-03-28T04:18:40.396Z,0.00
2019-03-28T04:19:40.398Z,0.00
2019-03-28T04:20:40.381Z,0.00
2019-03-28T04:21:40.363Z,0.00
2019-03-28T04:22:40.393Z,0.00
2019-03-28T04:23:40.342Z,0.00
2019-03-28T04:24:40.337Z,0.00
2019-03-28T04:25:40.378Z,0.00
2019-03-28T04:26:40.312Z,0.00
2019-03-28T04:27:40.309Z,0.00
2019-03-28T04:28:40.300Z,0.00
2019-03-28T04:29:40.276Z,0.00
2019-03-28T04:30:40.270Z,0.00
2019-03-28T04:31:40.295Z,0.00
2019-03-28T04:32:40.256Z,0.00
2019-03-28T04:33:40.245Z,0.00
2019-03-28T04:34:40.242Z,0.00
2019-03-28T04:35:40.224Z,0.00
2019-03-28T04:36:40.945Z,0.00
2019-03-28T04:37:40.239Z,0.00
2019-03-28T04:38:40.195Z,0.00
2019-03-28T04:39:40.179Z,0.00
2019-03-28T04:40:40.165Z,0.00
2019-03-28T04:41:40.150Z,4.00
2019-03-28T04:42:40.150Z,4.00
2019-03-28T04:43:40.167Z,0.00
2019-03-28T04:44:40.131Z,4.00
2019-03-28T04:45:40.113Z,4.00
2019-03-28T04:46:40.095Z,8.00
2019-03-28T04:47:40.096Z,8.00
2019-03-28T04:48:40.081Z,8.00
2019-03-28T04:49:40.106Z,12.00
2019-03-28T04:50:40.053Z,12.00
2019-03-28T04:51:40.068Z,16.00
2019-03-28T04:52:40.036Z,16.00
2019-03-28T04:53:40.025Z,20.00
2019-03-28T04:54:40.017Z,24.00
2019-03-28T04:55:40.036Z,28.00
2019-03-28T04:56:39.992Z,32.00
2019-03-28T04:57:41.234Z,40.00
2019-03-28T04:58:44.684Z,48.00
2019-03-28T04:59:41.447Z,56.00
2019-03-28T05:00:39.957Z,68.00
2019-03-28T05:01:39.980Z,80.00
2019-03-28T05:02:39.935Z,92.00
2019-03-28T05:03:39.940Z,108.00
2019-03-28T05:04:40.484Z,120.00
2019-03-28T05:05:39.897Z,136.00
2019-03-28T05:06:39.891Z,160.00
2019-03-28T05:07:39.921Z,180.00
2019-03-28T05:08:39.866Z,200.00
2019-03-28T05:09:39.855Z,228.00
2019-03-28T05:10:39.845Z,248.00
2019-03-28T05:11:39.850Z,276.00
2019-03-28T05:12:39.821Z,296.00
2019-03-28T05:13:39.845Z,324.00
2019-03-28T05:14:40.360Z,352.00
2019-03-28T05:15:39.791Z,380.00
2019-03-28T05:16:39.776Z,408.00
2019-03-28T05:17:40.411Z,436.00
2019-03-28T05:18:39.766Z,460.00
2019-03-28T05:19:39.743Z,488.00
2019-03-28T05:20:40.447Z,512.00
2019-03-28T05:21:39.724Z,540.00
2019-03-28T05:22:39.721Z,568.00
2019-03-28T05:23:40.470Z,600.00
2019-03-28T05:24:39.698Z,644.00
2019-03-28T05:25:39.682Z,688.00
2019-03-28T05:26:39.743Z,740.00
2019-03-28T05:27:39.664Z,800.00
2019-03-28T05:28:39.650Z,868.00
2019-03-28T05:29:39.638Z,928.00
2019-03-28T05:30:39.641Z,996.00
2019-03-28T05:31:39.638Z,1056.00
2019-03-28T05:32:39.651Z,1116.00
2019-03-28T05:33:39.596Z,1168.00
2019-03-28T05:34:39.586Z,1232.00
2019-03-28T05:35:39.577Z,1300.00
2019-03-28T05:36:39.563Z,1384.00
2019-03-28T05:37:39.568Z,1472.00
2019-03-28T05:38:39.594Z,1560.00
2019-03-28T05:39:39.535Z,1632.00
2019-03-28T05:40:39.520Z,1704.00
2019-03-28T05:41:39.516Z,1772.00
2019-03-28T05:42:39.507Z,1836.00
2019-03-28T05:43:39.489Z,1896.00
2019-03-28T05:44:39.517Z,1948.00
2019-03-28T05:45:39.489Z,2008.00
2019-03-28T05:46:39.460Z,2076.00
2019-03-28T05:47:39.449Z,2152.00
2019-03-28T05:48:39.441Z,2240.00
2019-03-28T05:49:39.453Z,2344.00
2019-03-28T05:50:39.453Z,2432.00
2019-03-28T05:51:39.407Z,2508.00
2019-03-28T05:52:39.406Z,2580.00
2019-03-28T05:53:39.387Z,2660.00
2019-03-28T05:54:39.395Z,2744.00
2019-03-28T05:55:39.370Z,2824.00
2019-03-28T05:56:39.394Z,2912.00
2019-03-28T05:57:39.343Z,3016.00
2019-03-28T05:58:39.352Z,3136.00
2019-03-28T05:59:39.329Z,3232.00
2019-03-28T06:00:40.279Z,3292.00
2019-03-28T06:01:39.299Z,3344.00
2019-03-28T06:02:39.331Z,3420.00
2019-03-28T06:03:39.282Z,3532.00
2019-03-28T06:04:39.268Z,3652.00
2019-03-28T06:05:39.277Z,3756.00
2019-03-28T06:06:39.246Z,3868.00
2019-03-28T06:07:39.235Z,4016.00
2019-03-28T06:08:39.273Z,4188.00
2019-03-28T06:09:40.379Z,4368.00
2019-03-28T06:10:39.202Z,4524.00
2019-03-28T06:11:39.212Z,4644.00
2019-03-28T06:12:39.188Z,4760.00
2019-03-28T06:13:39.175Z,4872.00
2019-03-28T06:14:39.207Z,4972.00
2019-03-28T06:15:41.040Z,5072.00
2019-03-28T06:16:39.141Z,5180.00
2019-03-28T06:17:39.149Z,5312.00
2019-03-28T06:18:39.123Z,5460.00
2019-03-28T06:19:39.106Z,5628.00
2019-03-28T06:20:39.135Z,5820.00
2019-03-28T06:21:39.729Z,6000.00
2019-03-28T06:22:39.655Z,6168.00
2019-03-28T06:23:39.503Z,6276.00
2019-03-28T06:24:39.062Z,6412.00
2019-03-28T06:25:40.920Z,6596.00
2019-03-28T06:26:39.074Z,6764.00
2019-03-28T06:27:39.042Z,6852.00
2019-03-28T06:28:39.020Z,6944.00
2019-03-28T06:29:39.019Z,7092.00
2019-03-28T06:30:38.989Z,7284.00
2019-03-28T06:31:38.981Z,7532.00
2019-03-28T06:32:43.082Z,7768.00
2019-03-28T06:33:38.956Z,7992.00
2019-03-28T06:34:38.959Z,8144.00
2019-03-28T06:35:38.958Z,8276.00
2019-03-28T06:36:38.930Z,8504.00
2019-03-28T06:37:38.919Z,8724.00
2019-03-28T06:38:38.951Z,8976.00
2019-03-28T06:39:38.892Z,9216.00
2019-03-28T06:40:38.883Z,9412.00
2019-03-28T06:41:38.890Z,9564.00
2019-03-28T06:42:38.860Z,9764.00
2019-03-28T06:43:41.781Z,10044.00
2019-03-28T06:44:38.895Z,10332.00
2019-03-28T06:45:38.830Z,10496.00
2019-03-28T06:46:38.826Z,10548.00
2019-03-28T06:47:38.835Z,10588.00
2019-03-28T06:48:38.796Z,10748.00
2019-03-28T06:49:38.792Z,10992.00
2019-03-28T06:50:38.816Z,11244.00
2019-03-28T06:51:38.773Z,11480.00
2019-03-28T06:52:38.760Z,11736.00
2019-03-28T06:53:38.770Z,12060.00
2019-03-28T06:54:38.738Z,12436.00
2019-03-28T06:55:38.727Z,12780.00
2019-03-28T06:56:38.776Z,13164.00
2019-03-28T06:57:38.704Z,13636.00
2019-03-28T06:58:38.692Z,14072.00
2019-03-28T06:59:38.708Z,14588.00
2019-03-28T07:00:38.672Z,15224.00
2019-03-28T07:01:38.666Z,16012.00
2019-03-28T07:02:38.697Z,16892.00
2019-03-28T07:03:38.647Z,18016.00
2019-03-28T07:04:38.629Z,18976.00
2019-03-28T07:05:38.623Z,19808.00
2019-03-28T07:06:38.636Z,20544.00
2019-03-28T07:07:38.599Z,21376.00
2019-03-28T07:08:38.625Z,22272.00
2019-03-28T07:09:38.580Z,23360.00
2019-03-28T07:10:38.566Z,24800.00
2019-03-28T07:11:38.553Z,26848.00
2019-03-28T07:12:38.548Z,38272.00
2019-03-28T07:13:38.545Z,58944.00
2019-03-28T07:14:38.571Z,62080.00
2019-03-28T07:15:38.515Z,62176.00
2019-03-28T07:16:38.503Z,55008.00
2019-03-28T07:17:38.495Z,57056.00
2019-03-28T07:18:38.486Z,61024.00
2019-03-28T07:19:38.470Z,64608.00
2019-03-28T07:20:38.512Z,63328.00
2019-03-28T07:21:38.448Z,60768.00
2019-03-28T07:22:38.451Z,56768.00
2019-03-28T07:23:38.535Z,56992.00
2019-03-28T07:24:38.479Z,61024.00
2019-03-28T07:25:38.411Z,62688.00
2019-03-28T07:26:38.552Z,64896.00
2019-03-28T07:27:38.380Z,65248.00
2019-03-28T07:28:38.381Z,67104.00
2019-03-28T07:29:50.119Z,63424.00
2019-03-28T07:30:39.356Z,59072.00
2019-03-28T07:31:38.357Z,61664.00
2019-03-28T07:32:38.374Z,59872.00
2019-03-28T07:33:38.326Z,64224.00
2019-03-28T07:34:47.240Z,65536.00
2019-03-28T07:35:38.351Z,65696.00
2019-03-28T07:36:38.287Z,64416.00
2019-03-28T07:37:38.541Z,64640.00
2019-03-28T07:38:38.266Z,64992.00
2019-03-28T07:40:01.404Z,65728.00
2019-03-28T07:40:38.250Z,65504.00
2019-03-28T07:41:38.281Z,66368.00
2019-03-28T07:42:38.245Z,65536.00
2019-03-28T07:43:38.212Z,63808.00
2019-03-28T07:44:53.218Z,67520.00
2019-03-28T07:45:38.199Z,71936.00
2019-03-28T07:46:38.195Z,68896.00
2019-03-28T07:47:38.217Z,67808.00
2019-03-28T07:48:38.178Z,65984.00
2019-03-28T07:49:39.322Z,64832.00
2019-03-28T07:50:38.144Z,69856.00
2019-03-28T07:51:38.132Z,73696.00
2019-03-28T07:52:38.117Z,73728.00
2019-03-28T07:53:38.149Z,69408.00
2019-03-28T07:55:07.241Z,70400.00
2019-03-28T07:55:38.084Z,70112.00
2019-03-28T07:56:38.078Z,70528.00
2019-03-28T07:57:38.075Z,71328.00
2019-03-28T07:58:38.057Z,70624.00
2019-03-28T07:59:39.308Z,75200.00
2019-03-28T08:00:38.050Z,77216.00
2019-03-28T08:01:38.016Z,76352.00
2019-03-28T08:02:38.011Z,75456.00
2019-03-28T08:03:39.912Z,78784.00
2019-03-28T08:04:38.001Z,77472.00
2019-03-28T08:05:38.063Z,80224.00
2019-03-28T08:06:49.199Z,73792.00
2019-03-28T08:07:45.047Z,72064.00
2019-03-28T08:08:44.070Z,72576.00
2019-03-28T08:09:37.931Z,70688.00
2019-03-28T08:10:37.923Z,77984.00
2019-03-28T08:11:38.753Z,80768.00
2019-03-28T08:12:37.914Z,79456.00
2019-03-28T08:13:37.887Z,80256.00
2019-03-28T08:14:37.877Z,81088.00
2019-03-28T08:15:37.867Z,81728.00
2019-03-28T08:16:37.858Z,81664.00
2019-03-28T08:17:37.878Z,81856.00
2019-03-28T08:18:37.835Z,77728.00
2019-03-28T08:19:41.412Z,82240.00
2019-03-28T08:20:37.827Z,84384.00
2019-03-28T08:21:37.804Z,79584.00
2019-03-28T08:22:37.793Z,80832.00
2019-03-28T08:23:39.967Z,82976.00
2019-03-28T08:24:37.767Z,85376.00
2019-03-28T08:25:37.835Z,85856.00
2019-03-28T08:26:37.773Z,84032.00
2019-03-28T08:27:37.754Z,84416.00
2019-03-28T08:28:37.733Z,82880.00
2019-03-28T08:29:37.717Z,87008.00
2019-03-28T08:30:37.708Z,86144.00
2019-03-28T08:31:40.585Z,86048.00
2019-03-28T08:32:39.770Z,82464.00
2019-03-28T08:33:37.676Z,85248.00
2019-03-28T08:34:37.702Z,86368.00
2019-03-28T08:35:37.650Z,84032.00
2019-03-28T08:36:37.641Z,85792.00
2019-03-28T08:37:37.632Z,89344.00
2019-03-28T08:38:37.617Z,92704.00
2019-03-28T08:39:37.619Z,92384.00
2019-03-28T08:40:39.728Z,91872.00
2019-03-28T08:41:37.586Z,96000.00
2019-03-28T08:42:37.578Z,94016.00
2019-03-28T08:43:37.566Z,91616.00
2019-03-28T08:44:38.547Z,91968.00
2019-03-28T08:45:37.547Z,91616.00
2019-03-28T08:46:37.567Z,90048.00
2019-03-28T08:47:37.556Z,92864.00
2019-03-28T08:48:37.514Z,91264.00
2019-03-28T08:49:37.506Z,92128.00
2019-03-28T08:50:37.490Z,96032.00
2019-03-28T08:51:37.485Z,94496.00
2019-03-28T08:52:37.512Z,94496.00
2019-03-28T08:53:37.546Z,95360.00
2019-03-28T08:54:37.470Z,94688.00
2019-03-28T08:55:37.438Z,97856.00
2019-03-28T08:56:37.427Z,97024.00
2019-03-28T08:57:37.416Z,95488.00
2019-03-28T08:58:38.345Z,92768.00
2019-03-28T08:59:37.394Z,93184.00
2019-03-28T09:00:51.188Z,100736.00
2019-03-28T09:01:38.378Z,102112.00
2019-03-28T09:02:37.360Z,100864.00
2019-03-28T09:03:37.380Z,97792.00
2019-03-28T09:04:37.381Z,97152.00
2019-03-28T09:05:37.335Z,91840.00
2019-03-28T09:06:37.339Z,91808.00
2019-03-28T09:07:37.336Z,97600.00
2019-03-28T09:08:37.302Z,101280.00
2019-03-28T09:09:37.289Z,98368.00
2019-03-28T09:10:37.314Z,104384.00
2019-03-28T09:11:37.268Z,102720.00
2019-03-28T09:12:37.282Z,100384.00
2019-03-28T09:13:37.244Z,101696.00
2019-03-28T09:14:37.238Z,99648.00
2019-03-28T09:15:43.449Z,95744.00
2019-03-28T09:16:38.271Z,101120.00
2019-03-28T09:17:37.282Z,100832.00
2019-03-28T09:18:37.191Z,96448.00
2019-03-28T09:19:38.950Z,101216.00
2019-03-28T09:20:37.171Z,100000.00
2019-03-28T09:21:37.169Z,102592.00
2019-03-28T09:22:38.959Z,102848.00
2019-03-28T09:23:37.147Z,108224.00
2019-03-28T09:24:37.134Z,109952.00
2019-03-28T09:25:37.121Z,110368.00
2019-03-28T09:26:37.227Z,105952.00
2019-03-28T09:27:37.148Z,100384.00
2019-03-28T09:28:37.086Z,94624.00
2019-03-28T09:29:37.072Z,95744.00
2019-03-28T09:30:48.056Z,97312.00
2019-03-28T09:31:38.049Z,98592.00
2019-03-28T09:32:37.045Z,100416.00
2019-03-28T09:33:40.385Z,103424.00
2019-03-28T09:34:37.075Z,99392.00
2019-03-28T09:35:37.041Z,99936.00
2019-03-28T09:36:36.996Z,101440.00
2019-03-28T09:37:36.987Z,101024.00
2019-03-28T09:38:36.985Z,102848.00
2019-03-28T09:39:36.991Z,99488.00
2019-03-28T09:40:37.011Z,105408.00
2019-03-28T09:41:36.941Z,107872.00
2019-03-28T09:42:36.934Z,108064.00
2019-03-28T09:43:36.918Z,112448.00
2019-03-28T09:44:36.920Z,114784.00
2019-03-28T09:45:36.926Z,112864.00
2019-03-28T09:46:36.937Z,115776.00
2019-03-28T09:47:36.890Z,117600.00
2019-03-28T09:48:36.876Z,115968.00
2019-03-28T09:49:36.861Z,110624.00
2019-03-28T09:50:36.849Z,109440.00
2019-03-28T09:51:36.841Z,108448.00
2019-03-28T09:52:36.866Z,106432.00
2019-03-28T09:53:36.821Z,113600.00
2019-03-28T09:54:36.802Z,113696.00
2019-03-28T09:55:36.824Z,111936.00
2019-03-28T09:56:36.819Z,112416.00
2019-03-28T09:57:36.769Z,110656.00
2019-03-28T09:58:36.800Z,109952.00
2019-03-28T09:59:36.743Z,109920.00
2019-03-28T10:00:36.747Z,108768.00
2019-03-28T10:01:36.726Z,101248.00
2019-03-28T10:02:36.718Z,103232.00
2019-03-28T10:03:36.715Z,103360.00
2019-03-28T10:04:36.730Z,106688.00
2019-03-28T10:05:38.091Z,109280.00
2019-03-28T10:06:36.667Z,113792.00
2019-03-28T10:07:38.488Z,115392.00
2019-03-28T10:08:36.666Z,118752.00
2019-03-28T10:09:36.777Z,116960.00
2019-03-28T10:10:36.665Z,114240.00
2019-03-28T10:11:36.613Z,107872.00
2019-03-28T10:12:36.689Z,112032.00
2019-03-28T10:13:36.594Z,114048.00
2019-03-28T10:14:36.607Z,112672.00
2019-03-28T10:15:37.198Z,115232.00
2019-03-28T10:16:36.600Z,112320.00
2019-03-28T10:17:36.548Z,112704.00
2019-03-28T10:18:36.536Z,109120.00
2019-03-28T10:19:36.560Z,114432.00
2019-03-28T10:20:36.528Z,116352.00
2019-03-28T10:21:37.642Z,115872.00
2019-03-28T10:22:36.496Z,114720.00
2019-03-28T10:23:39.607Z,114816.00
2019-03-28T10:24:36.468Z,117152.00
2019-03-28T10:25:36.493Z,115232.00
2019-03-28T10:26:36.479Z,113888.00
2019-03-28T10:27:36.449Z,112384.00
2019-03-28T10:28:36.426Z,117024.00
2019-03-28T10:29:36.418Z,115392.00
2019-03-28T10:30:36.403Z,117920.00
2019-03-28T10:31:36.432Z,121120.00
2019-03-28T10:32:36.383Z,114528.00
2019-03-28T10:33:36.391Z,117536.00
2019-03-28T10:34:36.360Z,117824.00
2019-03-28T10:35:36.390Z,111744.00
2019-03-28T10:36:36.340Z,110272.00
2019-03-28T10:37:36.365Z,108768.00
2019-03-28T10:38:36.319Z,112096.00
2019-03-28T10:39:36.318Z,122496.00
2019-03-28T10:40:36.609Z,122496.00
2019-03-28T10:41:39.533Z,125536.00
2019-03-28T10:42:36.274Z,124448.00
2019-03-28T10:43:36.298Z,125440.00
2019-03-28T10:44:36.253Z,119552.00
2019-03-28T10:45:36.250Z,118976.00
2019-03-28T10:46:36.230Z,115552.00
2019-03-28T10:47:36.220Z,112160.00
2019-03-28T10:48:36.210Z,125600.00
2019-03-28T10:49:36.247Z,123328.00
2019-03-28T10:50:41.471Z,127264.00
2019-03-28T10:51:37.188Z,128032.00
2019-03-28T10:52:36.166Z,121536.00
2019-03-28T10:53:36.160Z,119424.00
2019-03-28T10:54:36.154Z,113856.00
2019-03-28T10:55:36.170Z,114464.00
2019-03-28T10:56:36.120Z,119072.00
2019-03-28T10:57:36.124Z,112224.00
2019-03-28T10:58:36.105Z,112320.00
2019-03-28T10:59:36.093Z,115712.00
2019-03-28T11:00:36.083Z,116256.00
2019-03-28T11:01:48.067Z,117024.00
2019-03-28T11:02:37.058Z,120960.00
2019-03-28T11:03:36.081Z,118016.00
2019-03-28T11:04:36.056Z,117504.00
2019-03-28T11:05:36.032Z,118016.00
2019-03-28T11:06:36.013Z,108512.00
2019-03-28T11:07:36.055Z,106080.00
2019-03-28T11:08:36.681Z,104128.00
2019-03-28T11:09:35.993Z,107872.00
2019-03-28T11:10:35.971Z,107456.00
2019-03-28T11:11:35.962Z,112896.00
2019-03-28T11:12:36.019Z,122240.00
2019-03-28T11:13:35.943Z,125152.00
2019-03-28T11:14:35.973Z,119936.00
2019-03-28T11:15:35.935Z,117824.00
2019-03-28T11:16:35.909Z,115776.00
2019-03-28T11:17:35.900Z,114272.00
2019-03-28T11:18:35.887Z,122176.00
2019-03-28T11:19:35.880Z,120960.00
2019-03-28T11:20:39.634Z,112032.00
2019-03-28T11:21:35.866Z,111232.00
2019-03-28T11:22:35.844Z,110176.00
2019-03-28T11:23:35.833Z,110272.00
2019-03-28T11:24:35.821Z,112192.00
2019-03-28T11:25:35.810Z,118976.00
2019-03-28T11:26:35.837Z,117120.00
2019-03-28T11:27:35.797Z,118752.00
2019-03-28T11:28:35.798Z,113664.00
2019-03-28T11:29:35.766Z,106048.00
2019-03-28T11:30:35.757Z,107808.00
2019-03-28T11:32:36.771Z,115712.00
2019-03-28T11:33:35.730Z,114400.00
2019-03-28T11:34:35.738Z,113920.00
2019-03-28T11:35:35.703Z,112896.00
2019-03-28T11:36:35.695Z,115872.00
2019-03-28T11:37:35.681Z,115712.00
2019-03-28T11:38:35.708Z,113216.00
2019-03-28T11:39:35.665Z,106624.00
2019-03-28T11:40:35.665Z,107584.00
2019-03-28T11:41:35.642Z,113696.00
2019-03-28T11:42:35.396Z,110464.00
2019-03-28T11:42:35.629Z,115968.00
2019-03-28T11:43:35.621Z,116480.00
2019-03-28T11:44:35.643Z,114208.00
2019-03-28T11:45:35.606Z,111264.00
2019-03-28T11:46:35.614Z,116096.00
2019-03-28T11:47:35.576Z,117344.00
2019-03-28T11:48:35.569Z,118592.00
2019-03-28T11:49:35.555Z,126560.00
2019-03-28T11:50:35.580Z,124416.00
2019-03-28T11:51:36.337Z,119264.00
2019-03-28T11:52:35.550Z,114304.00
2019-03-28T11:53:35.508Z,109184.00
2019-03-28T11:54:35.503Z,114848.00
2019-03-28T11:55:35.491Z,110688.00
2019-03-28T11:56:35.519Z,108032.00
2019-03-28T11:57:35.477Z,107040.00
2019-03-28T11:58:35.473Z,111296.00
2019-03-28T11:59:35.442Z,113056.00
2019-03-28T12:00:35.432Z,108704.00
2019-03-28T12:01:35.433Z,109344.00
2019-03-28T12:02:35.450Z,109408.00
2019-03-28T12:03:35.405Z,116576.00
2019-03-28T12:04:38.652Z,111840.00
2019-03-28T12:05:35.377Z,106816.00
2019-03-28T12:06:35.370Z,103200.00
2019-03-28T12:07:35.355Z,98784.00
2019-03-28T12:08:35.393Z,101088.00
2019-03-28T12:09:35.347Z,103072.00
2019-03-28T12:10:35.334Z,103584.00
2019-03-28T12:11:35.316Z,105344.00
2019-03-28T12:12:35.301Z,107264.00
2019-03-28T12:13:44.591Z,108288.00
2019-03-28T12:14:36.319Z,108800.00
2019-03-28T12:15:35.268Z,108352.00
2019-03-28T12:16:35.267Z,108160.00
2019-03-28T12:17:35.247Z,109792.00
2019-03-28T12:18:35.229Z,108608.00